Time;durP1;ratioP1;P1;durP2;ratioP2;P2;SDS_P1;SDS_P2;PMS_P1;PMS_P2;Temp;Humidity;BMP_temperature;BMP_pressure;BME280_temperature;BME280_humidity;BME280_pressure;Samples;Min_cycle;Max_cycle;Signal;HPM_P1;HPM_P2
2021/05/30 00:00:37;;;;;;;2.47;1.70;;;6.40;99.90;;;;;;2098124;28;20196;-69
2021/05/30 00:01:38;;;;;;;3.03;1.75;;;6.40;99.90;;;;;;2096587;28;20257;-69
2021/05/30 00:02:39;;;;;;;3.23;1.73;;;6.30;99.90;;;;;;2097313;28;20187;-69
2021/05/30 00:03:39;;;;;;;2.40;1.70;;;6.30;99.90;;;;;;2098457;28;20187;-65
2021/05/30 00:04:40;;;;;;;1.57;1.47;;;6.30;99.90;;;;;;2098477;28;20274;-65
2021/05/30 00:05:41;;;;;;;3.97;1.80;;;6.30;99.90;;;;;;2098311;28;20214;-65
2021/05/30 00:06:42;;;;;;;2.10;1.90;;;6.30;99.90;;;;;;2098407;28;20190;-64
2021/05/30 00:07:43;;;;;;;3.13;1.90;;;6.30;99.90;;;;;;2098181;28;20183;-64
2021/05/30 00:08:43;;;;;;;2.20;1.83;;;6.30;99.90;;;;;;2097928;28;20436;-64
2021/05/30 00:09:46;;;;;;;1.97;1.70;;;6.30;99.90;;;;;;2098263;28;20597;-65
2021/05/30 00:10:48;;;;;;;1.70;1.60;;;6.30;99.90;;;;;;2106074;28;20203;-65
2021/05/30 00:11:48;;;;;;;2.13;1.92;;;6.30;99.90;;;;;;2097354;28;20206;-64
2021/05/30 00:12:50;;;;;;;3.53;1.80;;;6.30;99.90;;;;;;2097663;28;20217;-64
2021/05/30 00:13:52;;;;;;;2.05;1.58;;;6.20;99.90;;;;;;2098264;28;20172;-64
2021/05/30 00:14:53;;;;;;;1.85;1.60;;;6.20;99.90;;;;;;2098314;28;20181;-65
2021/05/30 00:15:54;;;;;;;3.33;1.88;;;6.20;99.90;;;;;;2098336;28;20182;-66
2021/05/30 00:16:54;;;;;;;1.97;1.70;;;6.20;99.90;;;;;;2098364;28;20701;-65
2021/05/30 00:17:56;;;;;;;2.77;1.73;;;6.20;99.90;;;;;;2098310;28;20218;-64
2021/05/30 00:18:56;;;;;;;3.63;1.70;;;6.20;99.90;;;;;;2098014;28;20716;-64
2021/05/30 00:19:57;;;;;;;3.23;1.80;;;6.20;99.90;;;;;;2097433;28;20187;-65
2021/05/30 00:20:59;;;;;;;1.87;1.67;;;6.20;99.90;;;;;;2097748;28;20278;-65
2021/05/30 00:21:59;;;;;;;1.80;1.70;;;6.20;99.90;;;;;;2097993;28;20179;-64
2021/05/30 00:23:00;;;;;;;3.40;1.57;;;6.10;99.90;;;;;;2098204;28;20191;-65
2021/05/30 00:24:01;;;;;;;2.10;1.70;;;6.10;99.90;;;;;;2097894;28;20962;-65
2021/05/30 00:25:03;;;;;;;2.00;1.80;;;6.10;99.90;;;;;;2098261;28;20226;-64
2021/05/30 00:26:05;;;;;;;3.08;1.80;;;6.10;99.90;;;;;;2098301;28;20206;-65
2021/05/30 00:27:06;;;;;;;2.78;2.00;;;6.10;99.90;;;;;;2098144;28;20183;-65
2021/05/30 00:28:07;;;;;;;2.58;1.70;;;6.00;99.90;;;;;;2098172;28;20183;-64
2021/05/30 00:29:08;;;;;;;1.58;1.48;;;6.00;99.90;;;;;;2098070;28;20199;-65
2021/05/30 00:30:09;;;;;;;1.80;1.70;;;6.00;99.90;;;;;;2097937;28;20179;-64
2021/05/30 00:31:10;;;;;;;2.65;1.80;;;6.00;99.90;;;;;;2098204;28;20186;-64
2021/05/30 00:32:11;;;;;;;3.30;2.00;;;6.00;99.90;;;;;;2097976;28;20190;-65
2021/05/30 00:33:14;;;;;;;3.20;1.80;;;6.00;99.90;;;;;;2098273;28;20650;-64
2021/05/30 00:34:15;;;;;;;2.17;1.67;;;6.00;99.90;;;;;;2098144;28;20206;-65
2021/05/30 00:35:16;;;;;;;2.10;1.80;;;6.00;99.90;;;;;;2097975;28;20528;-65
2021/05/30 00:36:17;;;;;;;3.70;1.80;;;5.90;99.90;;;;;;2098138;28;20221;-64
2021/05/30 00:37:17;;;;;;;3.43;1.60;;;5.90;99.90;;;;;;2098287;28;20673;-64
2021/05/30 00:38:18;;;;;;;2.23;1.53;;;5.90;99.90;;;;;;2098136;28;20846;-64
2021/05/30 00:39:19;;;;;;;2.50;2.00;;;5.90;99.90;;;;;;2098131;28;20246;-65
2021/05/30 00:40:21;;;;;;;3.20;1.80;;;5.90;99.90;;;;;;2098087;28;20175;-65
2021/05/30 00:41:22;;;;;;;2.20;1.80;;;5.80;99.90;;;;;;2097934;28;20185;-65
2021/05/30 00:42:23;;;;;;;2.40;2.10;;;5.80;99.90;;;;;;2098253;28;20203;-64
2021/05/30 00:43:23;;;;;;;2.17;1.70;;;5.80;99.90;;;;;;2098026;28;20245;-65
2021/05/30 00:44:29;;;;;;;3.00;1.50;;;5.80;99.90;;;;;;2098221;28;20177;-65
2021/05/30 00:45:30;;;;;;;2.13;1.80;;;5.80;99.90;;;;;;2098136;28;20166;-65
2021/05/30 00:46:32;;;;;;;2.10;1.90;;;5.70;99.90;;;;;;2098160;28;20214;-64
2021/05/30 00:47:32;;;;;;;2.50;1.93;;;5.70;99.90;;;;;;2097464;28;20176;-65
2021/05/30 00:48:33;;;;;;;2.83;1.80;;;5.70;99.90;;;;;;2097819;28;20173;-65
2021/05/30 00:49:34;;;;;;;3.00;1.83;;;5.70;99.90;;;;;;2097951;28;20581;-65
2021/05/30 00:50:34;;;;;;;2.17;1.73;;;5.70;99.90;;;;;;2098211;28;20178;-65
2021/05/30 00:51:35;;;;;;;2.10;1.70;;;5.70;99.90;;;;;;2097628;28;20172;-65
2021/05/30 00:52:36;;;;;;;2.03;1.80;;;5.60;99.90;;;;;;2098219;28;20179;-66
2021/05/30 00:53:37;;;;;;;2.40;1.87;;;5.70;99.90;;;;;;2097323;28;20545;-64
2021/05/30 00:54:39;;;;;;;2.97;1.80;;;5.60;99.90;;;;;;2097440;28;20181;-64
2021/05/30 00:55:41;;;;;;;2.05;1.85;;;5.60;99.90;;;;;;2098053;28;20185;-64
2021/05/30 00:56:42;;;;;;;2.45;1.75;;;5.60;99.90;;;;;;2097484;28;20266;-65
2021/05/30 00:57:43;;;;;;;3.03;1.70;;;5.60;99.90;;;;;;2097248;28;20189;-65
2021/05/30 00:58:43;;;;;;;3.77;1.90;;;5.60;99.90;;;;;;2097881;28;20208;-64
2021/05/30 00:59:44;;;;;;;1.93;1.70;;;5.60;99.90;;;;;;2097233;28;20176;-65
2021/05/30 01:00:45;;;;;;;2.10;1.80;;;5.60;99.90;;;;;;2097413;28;20185;-64
2021/05/30 01:01:48;;;;;;;2.07;1.87;;;5.60;99.90;;;;;;2097600;28;20177;-64
2021/05/30 01:02:49;;;;;;;2.85;1.90;;;5.60;99.90;;;;;;2097992;28;20230;-64
2021/05/30 01:03:50;;;;;;;2.20;1.90;;;5.50;99.90;;;;;;2097966;28;20583;-64
2021/05/30 01:04:50;;;;;;;2.23;1.90;;;5.50;99.90;;;;;;2097379;28;20179;-65
2021/05/30 01:05:52;;;;;;;3.27;2.10;;;5.50;99.90;;;;;;2097292;28;20433;-65
2021/05/30 01:06:57;;;;;;;2.78;1.77;;;5.50;99.90;;;;;;2098043;28;20225;-64
2021/05/30 01:07:58;;;;;;;2.90;2.20;;;5.50;99.90;;;;;;2097935;28;20254;-64
2021/05/30 01:09:01;;;;;;;4.13;1.70;;;5.50;99.90;;;;;;2098082;28;20594;-64
2021/05/30 01:10:25;;;;;;;1.92;1.60;;;5.50;99.90;;;;;;2097916;28;20592;-64
2021/05/30 01:11:26;;;;;;;2.30;2.10;;;5.50;99.90;;;;;;2105530;28;20232;-64
2021/05/30 01:12:27;;;;;;;2.08;1.63;;;5.50;99.90;;;;;;2105505;28;20222;-65
2021/05/30 01:13:28;;;;;;;1.90;1.80;;;5.50;99.90;;;;;;2097726;28;20191;-65
2021/05/30 01:14:29;;;;;;;1.90;1.70;;;5.40;99.90;;;;;;2097884;28;20224;-65
2021/05/30 01:15:32;;;;;;;3.10;2.07;;;5.40;99.90;;;;;;2097994;28;20225;-64
2021/05/30 01:16:33;;;;;;;1.88;1.70;;;5.40;99.90;;;;;;2097882;28;20257;-64
2021/05/30 01:17:34;;;;;;;2.53;1.77;;;5.40;99.90;;;;;;2097955;28;20238;-65
2021/05/30 01:18:36;;;;;;;2.33;1.70;;;5.40;99.90;;;;;;2088818;28;20182;-64
2021/05/30 01:19:39;;;;;;;2.10;1.80;;;5.40;99.90;;;;;;2081318;28;20221;-64
2021/05/30 01:20:40;;;;;;;2.25;1.90;;;5.40;99.90;;;;;;2097327;28;20225;-64
2021/05/30 01:21:45;;;;;;;2.10;1.80;;;5.30;99.90;;;;;;2097901;28;20193;-65
2021/05/30 01:22:47;;;;;;;1.90;1.60;;;5.30;99.90;;;;;;2097956;28;20211;-64
2021/05/30 01:23:54;;;;;;;2.30;2.00;;;5.30;99.90;;;;;;2097980;28;20182;-65
2021/05/30 01:24:55;;;;;;;2.00;1.80;;;5.30;99.90;;;;;;2097680;28;20196;-64
2021/05/30 01:25:55;;;;;;;2.10;1.90;;;5.30;99.90;;;;;;2098077;28;20709;-65
2021/05/30 01:26:56;;;;;;;1.97;1.77;;;5.30;99.90;;;;;;2097916;28;20171;-66
2021/05/30 01:27:57;;;;;;;2.80;1.83;;;5.30;99.90;;;;;;2097309;28;20292;-66
2021/05/30 01:28:58;;;;;;;1.80;1.70;;;5.20;99.90;;;;;;2097208;28;20544;-65
2021/05/30 01:29:58;;;;;;;1.90;1.70;;;5.20;99.90;;;;;;2097157;28;20174;-66
2021/05/30 01:30:59;;;;;;;2.63;1.87;;;5.20;99.90;;;;;;2097164;28;20184;-65
2021/05/30 01:32:00;;;;;;;1.92;1.67;;;5.20;99.90;;;;;;2105431;28;20178;-65
2021/05/30 01:33:02;;;;;;;2.10;1.90;;;5.20;99.90;;;;;;2096647;28;20282;-64
2021/05/30 01:34:03;;;;;;;1.85;1.73;;;5.20;99.90;;;;;;2095998;28;20679;-65
2021/05/30 01:35:06;;;;;;;1.92;1.70;;;5.20;99.90;;;;;;2097577;28;20555;-65
2021/05/30 01:36:07;;;;;;;2.00;1.80;;;5.10;99.90;;;;;;2097377;28;20190;-66
2021/05/30 01:37:08;;;;;;;2.20;2.00;;;5.10;99.90;;;;;;2097195;28;20232;-66
2021/05/30 01:38:08;;;;;;;2.00;1.77;;;5.20;99.90;;;;;;2097862;28;20185;-66
2021/05/30 01:39:09;;;;;;;1.73;1.60;;;5.10;99.90;;;;;;2097572;28;20295;-65
2021/05/30 01:40:11;;;;;;;1.90;1.80;;;5.10;99.90;;;;;;2097199;28;20206;-65
2021/05/30 01:41:12;;;;;;;3.33;1.73;;;5.10;99.90;;;;;;2096701;28;20774;-64
2021/05/30 01:42:12;;;;;;;4.27;1.80;;;5.10;99.90;;;;;;2097840;28;20177;-66
2021/05/30 01:43:13;;;;;;;2.10;1.80;;;5.10;99.90;;;;;;2097592;28;20181;-65
2021/05/30 01:44:14;;;;;;;1.87;1.77;;;5.10;99.90;;;;;;2097745;28;20189;-65
2021/05/30 01:45:17;;;;;;;1.77;1.65;;;5.10;99.90;;;;;;2097646;28;20173;-65
2021/05/30 01:46:18;;;;;;;2.38;1.83;;;5.10;99.90;;;;;;2097624;28;20185;-64
2021/05/30 01:47:19;;;;;;;3.83;2.00;;;5.00;99.90;;;;;;2097650;28;20186;-64
2021/05/30 01:48:20;;;;;;;3.90;2.00;;;5.00;99.90;;;;;;2097625;28;20175;-64
2021/05/30 01:49:20;;;;;;;3.88;1.80;;;5.00;99.90;;;;;;2097527;28;20198;-64
2021/05/30 01:50:24;;;;;;;2.40;1.90;;;5.00;99.90;;;;;;2097647;28;20182;-64
2021/05/30 01:51:25;;;;;;;4.18;1.90;;;5.00;99.90;;;;;;2097241;28;20177;-64
2021/05/30 01:52:25;;;;;;;2.40;2.00;;;5.00;99.90;;;;;;2097715;28;20678;-64
2021/05/30 01:53:39;;;;;;;2.43;1.83;;;4.90;99.90;;;;;;2097680;28;20192;-65
2021/05/30 01:54:47;;;;;;;2.35;2.00;;;4.90;99.90;;;;;;2097648;28;20160;-65
2021/05/30 01:56:58;;;;;;;3.05;1.70;;;4.90;99.90;;;;;;2097681;28;20188;-64
2021/05/30 01:57:58;;;;;;;2.05;1.85;;;4.90;99.90;;;;;;2097719;28;20181;-64
2021/05/30 01:59:03;;;;;;;2.77;1.53;;;4.90;99.90;;;;;;2097487;28;20218;-64
2021/05/30 02:00:05;;;;;;;1.75;1.63;;;4.90;99.90;;;;;;2097048;28;20178;-65
2021/05/30 02:01:07;;;;;;;2.60;1.90;;;4.90;99.90;;;;;;2097141;28;20181;-65
2021/05/30 02:02:07;;;;;;;4.13;1.95;;;4.90;99.90;;;;;;2097654;28;20177;-65
2021/05/30 02:03:08;;;;;;;2.30;2.10;;;4.90;99.90;;;;;;2097081;28;20189;-65
2021/05/30 02:04:13;;;;;;;2.10;1.90;;;4.90;99.90;;;;;;2088668;28;20202;-66
2021/05/30 02:05:14;;;;;;;2.20;1.70;;;4.90;99.90;;;;;;2097181;28;20185;-65
2021/05/30 02:06:16;;;;;;;1.73;1.63;;;4.80;99.90;;;;;;2097671;28;20212;-66
2021/05/30 02:07:16;;;;;;;2.00;1.80;;;4.80;99.90;;;;;;2097736;28;20210;-66
2021/05/30 02:08:18;;;;;;;2.47;1.80;;;4.80;99.90;;;;;;2097462;28;20241;-65
2021/05/30 02:09:19;;;;;;;1.90;1.70;;;4.80;99.90;;;;;;2097598;28;20184;-65
2021/05/30 02:10:23;;;;;;;2.20;2.00;;;4.80;99.90;;;;;;2097586;28;20217;-65
2021/05/30 02:11:23;;;;;;;2.08;1.80;;;4.80;99.90;;;;;;2097471;28;20234;-65
2021/05/30 02:12:24;;;;;;;2.53;2.13;;;4.80;99.90;;;;;;2097479;28;20177;-66
2021/05/30 02:13:27;;;;;;;2.00;1.75;;;4.70;99.90;;;;;;2096818;28;20677;-66
2021/05/30 02:14:28;;;;;;;2.38;1.77;;;4.70;99.90;;;;;;2096914;28;20185;-65
2021/05/30 02:15:28;;;;;;;2.90;2.10;;;4.70;99.90;;;;;;2097010;28;20202;-66
2021/05/30 02:16:31;;;;;;;2.00;1.77;;;4.70;99.90;;;;;;2093917;22;20673;-71
2021/05/30 02:17:34;;;;;;;2.08;1.88;;;4.70;99.90;;;;;;2071919;28;20580;-69
2021/05/30 02:18:35;;;;;;;2.65;1.77;;;4.70;99.90;;;;;;2066928;28;20215;-69
2021/05/30 02:19:36;;;;;;;3.07;1.90;;;4.70;99.90;;;;;;2072031;28;20210;-69
2021/05/30 02:20:41;;;;;;;2.00;1.80;;;4.70;99.90;;;;;;2071969;28;20236;-69
2021/05/30 02:21:48;;;;;;;3.85;1.90;;;4.70;99.90;;;;;;2064105;28;20597;-69
2021/05/30 02:22:49;;;;;;;1.58;1.48;;;4.70;99.90;;;;;;2056163;28;20206;-69
2021/05/30 02:23:50;;;;;;;3.50;1.80;;;4.70;99.90;;;;;;2055644;28;20195;-69
2021/05/30 02:24:50;;;;;;;3.40;2.17;;;4.70;99.90;;;;;;2063731;28;20253;-69
2021/05/30 02:25:51;;;;;;;3.00;1.77;;;4.70;99.90;;;;;;2071952;28;20414;-69
2021/05/30 02:26:52;;;;;;;4.33;2.33;;;4.70;99.90;;;;;;2072568;28;20654;-69
2021/05/30 02:27:54;;;;;;;2.20;1.77;;;4.70;99.90;;;;;;2072783;28;20261;-69
2021/05/30 02:28:56;;;;;;;2.40;1.90;;;4.70;99.90;;;;;;2072643;28;20581;-69
2021/05/30 02:29:57;;;;;;;2.33;2.10;;;4.60;99.90;;;;;;2071944;28;20224;-69
2021/05/30 02:30:57;;;;;;;2.80;1.97;;;4.60;99.90;;;;;;2071954;28;20319;-69
2021/05/30 02:31:58;;;;;;;2.53;2.10;;;4.60;99.90;;;;;;2072558;28;20168;-69
2021/05/30 02:33:01;;;;;;;2.30;1.97;;;4.60;99.90;;;;;;2072548;28;20409;-69
2021/05/30 02:34:03;;;;;;;3.15;2.40;;;4.60;99.90;;;;;;2072642;28;20178;-70
2021/05/30 02:35:04;;;;;;;2.40;2.15;;;4.60;99.90;;;;;;2072276;28;20210;-70
2021/05/30 02:36:05;;;;;;;2.83;2.00;;;4.60;99.90;;;;;;2072489;28;20199;-70
2021/05/30 02:37:07;;;;;;;2.65;2.40;;;4.60;99.90;;;;;;2072571;28;20675;-69
2021/05/30 02:38:08;;;;;;;2.25;2.05;;;4.50;99.90;;;;;;2072035;28;20273;-70
2021/05/30 02:39:08;;;;;;;3.43;2.40;;;4.50;99.90;;;;;;2071840;28;20614;-70
2021/05/30 02:40:10;;;;;;;5.33;2.70;;;4.50;99.90;;;;;;2072368;28;20547;-69
2021/05/30 02:41:11;;;;;;;2.42;2.22;;;4.50;99.90;;;;;;2071668;28;20613;-69
2021/05/30 02:42:12;;;;;;;3.00;2.23;;;4.50;99.90;;;;;;2071995;28;20182;-70
2021/05/30 02:43:13;;;;;;;4.55;2.38;;;4.50;99.90;;;;;;2071821;28;20620;-71
2021/05/30 02:44:13;;;;;;;2.97;2.07;;;4.50;99.90;;;;;;2071885;28;20190;-70
2021/05/30 02:45:14;;;;;;;2.40;2.20;;;4.50;99.90;;;;;;2072286;28;20265;-70
2021/05/30 02:46:16;;;;;;;2.50;2.10;;;4.50;99.90;;;;;;2072646;28;20281;-70
2021/05/30 02:47:17;;;;;;;2.92;2.20;;;4.40;99.90;;;;;;2071762;28;20274;-70
2021/05/30 02:48:17;;;;;;;2.60;1.97;;;4.50;99.90;;;;;;2070624;28;20193;-69
2021/05/30 02:49:18;;;;;;;2.63;1.90;;;4.50;99.90;;;;;;2073062;28;20181;-69
2021/05/30 02:50:19;;;;;;;2.93;2.27;;;4.50;99.90;;;;;;2088105;28;20831;-69
2021/05/30 02:51:20;;;;;;;4.17;2.00;;;4.50;99.90;;;;;;2087856;28;20247;-70
2021/05/30 02:52:21;;;;;;;2.00;1.77;;;4.50;99.90;;;;;;2088321;28;20664;-70
2021/05/30 02:53:21;;;;;;;2.60;2.10;;;4.50;99.90;;;;;;2088272;28;20172;-69
2021/05/30 02:54:22;;;;;;;2.50;2.00;;;4.50;99.90;;;;;;2089136;28;20174;-70
2021/05/30 02:55:23;;;;;;;2.92;2.17;;;4.50;99.90;;;;;;2089041;28;20195;-70
2021/05/30 02:56:24;;;;;;;2.10;1.90;;;4.50;99.90;;;;;;2088237;28;20196;-70
2021/05/30 02:57:25;;;;;;;2.28;1.98;;;4.40;99.90;;;;;;2088278;28;20209;-70
2021/05/30 02:58:29;;;;;;;2.40;2.07;;;4.40;99.90;;;;;;2089040;28;20691;-70
2021/05/30 02:59:29;;;;;;;2.63;2.15;;;4.40;99.90;;;;;;2088206;28;20258;-70
2021/05/30 03:00:30;;;;;;;2.37;2.07;;;4.40;99.90;;;;;;2088412;28;20749;-70
2021/05/30 03:01:30;;;;;;;3.60;1.90;;;4.40;99.90;;;;;;2088427;28;20212;-70
2021/05/30 03:02:31;;;;;;;3.33;2.20;;;4.40;99.90;;;;;;2088829;28;20291;-69
2021/05/30 03:03:32;;;;;;;2.30;2.10;;;4.40;99.90;;;;;;2088789;28;20172;-69
2021/05/30 03:04:33;;;;;;;4.07;2.20;;;4.40;99.90;;;;;;2088307;28;20216;-70
2021/05/30 03:05:33;;;;;;;3.53;2.10;;;4.40;99.90;;;;;;2079916;28;20192;-70
2021/05/30 03:06:34;;;;;;;2.30;2.10;;;4.30;99.90;;;;;;2088066;28;20193;-69
2021/05/30 03:07:35;;;;;;;2.30;2.10;;;4.30;99.90;;;;;;2088757;28;20181;-69
2021/05/30 03:08:36;;;;;;;2.73;2.20;;;4.30;99.90;;;;;;2088970;28;20792;-70
2021/05/30 03:09:38;;;;;;;2.90;2.03;;;4.30;99.90;;;;;;2088790;28;20628;-70
2021/05/30 03:10:39;;;;;;;3.17;2.30;;;4.30;99.90;;;;;;2088252;28;20203;-70
2021/05/30 03:11:39;;;;;;;4.30;2.37;;;4.30;99.90;;;;;;2089362;28;20177;-69
2021/05/30 03:12:40;;;;;;;2.07;1.87;;;4.30;99.90;;;;;;2090490;28;20166;-69
2021/05/30 03:13:41;;;;;;;2.83;2.10;;;4.20;99.90;;;;;;2089704;28;20194;-70
2021/05/30 03:14:42;;;;;;;2.50;2.27;;;4.30;99.90;;;;;;2089978;28;20168;-70
2021/05/30 03:15:43;;;;;;;3.23;2.50;;;4.30;99.90;;;;;;2089587;28;20190;-70
2021/05/30 03:16:43;;;;;;;2.73;2.30;;;4.30;99.90;;;;;;2090294;28;20181;-69
2021/05/30 03:17:44;;;;;;;3.13;2.03;;;4.30;99.90;;;;;;2090177;28;20157;-69
2021/05/30 03:18:45;;;;;;;3.70;2.40;;;4.20;99.90;;;;;;2090338;28;20169;-70
2021/05/30 03:19:46;;;;;;;2.38;2.15;;;4.20;99.90;;;;;;2089658;28;20165;-70
2021/05/30 03:20:47;;;;;;;3.13;2.40;;;4.20;99.90;;;;;;2089839;28;20164;-70
2021/05/30 03:21:48;;;;;;;2.20;2.00;;;4.20;99.90;;;;;;2090084;28;20863;-70
2021/05/30 03:22:49;;;;;;;3.00;2.10;;;4.20;99.90;;;;;;2090240;28;20674;-70
2021/05/30 03:23:50;;;;;;;2.67;2.20;;;4.10;99.90;;;;;;2090121;28;20200;-69
2021/05/30 03:24:50;;;;;;;2.30;2.10;;;4.10;99.90;;;;;;2090313;28;20581;-70
2021/05/30 03:25:51;;;;;;;2.07;1.87;;;4.10;99.90;;;;;;2090174;28;20156;-70
2021/05/30 03:26:54;;;;;;;3.07;2.30;;;4.10;99.90;;;;;;2086900;28;20161;-69
2021/05/30 03:27:54;;;;;;;3.05;2.13;;;4.10;99.90;;;;;;2081801;28;20404;-70
2021/05/30 03:28:55;;;;;;;3.73;2.30;;;4.10;99.90;;;;;;2081989;28;20256;-70
2021/05/30 03:29:57;;;;;;;2.57;2.37;;;4.10;99.90;;;;;;2081969;28;20215;-70
2021/05/30 03:30:57;;;;;;;3.38;2.20;;;4.10;99.90;;;;;;2082033;28;20186;-70
2021/05/30 03:31:58;;;;;;;4.50;2.00;;;4.10;99.90;;;;;;2081945;28;20268;-70
2021/05/30 03:33:00;;;;;;;2.27;2.07;;;4.10;99.90;;;;;;2081323;28;20643;-70
2021/05/30 03:34:01;;;;;;;2.00;1.80;;;4.10;99.90;;;;;;2081413;28;20230;-70
2021/05/30 03:35:04;;;;;;;3.27;2.23;;;4.10;99.90;;;;;;2082054;28;20660;-70
2021/05/30 03:36:09;;;;;;;3.10;2.35;;;4.10;99.90;;;;;;2081985;28;20228;-70
2021/05/30 03:37:10;;;;;;;2.20;2.00;;;4.10;99.90;;;;;;2081399;28;20181;-70
2021/05/30 03:38:13;;;;;;;3.67;2.13;;;4.10;99.90;;;;;;2073677;28;20675;-70
2021/05/30 03:39:14;;;;;;;2.20;2.00;;;4.10;99.90;;;;;;2081205;28;20237;-70
2021/05/30 03:41:37;;;;;;;2.33;1.98;;;4.10;99.90;;;;;;2081380;28;20181;-70
2021/05/30 03:42:41;;;;;;;4.35;2.15;;;4.10;99.90;;;;;;2076043;28;20666;-70
2021/05/30 03:43:42;;;;;;;2.15;1.83;;;4.10;99.90;;;;;;2074212;28;20260;-70
2021/05/30 03:44:43;;;;;;;2.10;1.90;;;4.00;99.90;;;;;;2081139;28;20177;-71
2021/05/30 03:45:44;;;;;;;2.23;2.00;;;4.10;99.90;;;;;;2081914;28;20181;-70
2021/05/30 03:46:44;;;;;;;3.47;2.00;;;4.10;99.90;;;;;;2081851;28;20196;-70
2021/05/30 03:47:45;;;;;;;3.00;1.90;;;4.10;99.90;;;;;;2081907;28;20184;-70
2021/05/30 03:48:46;;;;;;;4.03;2.10;;;4.10;99.90;;;;;;2081800;28;20264;-70
2021/05/30 03:49:46;;;;;;;3.27;2.00;;;4.10;99.90;;;;;;2081805;28;20174;-70
2021/05/30 03:50:50;;;;;;;3.00;2.13;;;4.10;99.90;;;;;;2081968;28;20176;-70
2021/05/30 03:51:51;;;;;;;2.30;2.10;;;4.10;99.90;;;;;;2089371;28;20175;-70
2021/05/30 03:52:51;;;;;;;2.07;1.90;;;4.10;99.90;;;;;;2081136;28;20180;-70
2021/05/30 03:53:52;;;;;;;2.60;1.97;;;4.10;99.90;;;;;;2072934;28;20237;-70
2021/05/30 03:54:53;;;;;;;2.57;2.17;;;4.20;99.90;;;;;;2072800;28;20696;-70
2021/05/30 03:55:53;;;;;;;2.63;2.00;;;4.20;99.90;;;;;;2072736;28;20174;-70
2021/05/30 03:56:54;;;;;;;1.97;1.80;;;4.20;99.90;;;;;;2081090;28;20227;-70
2021/05/30 03:57:55;;;;;;;2.13;1.90;;;4.20;99.90;;;;;;2081607;28;20168;-70
2021/05/30 03:58:57;;;;;;;2.60;1.90;;;4.20;99.90;;;;;;2081157;28;20202;-70
2021/05/30 04:00:09;;;;;;;3.30;2.10;;;4.20;99.90;;;;;;2081702;28;20697;-70
2021/05/30 04:01:10;;;;;;;2.90;2.10;;;4.20;99.90;;;;;;2080885;28;20173;-70
2021/05/30 04:02:10;;;;;;;2.07;1.87;;;4.20;99.90;;;;;;2081087;28;20172;-70
2021/05/30 04:03:12;;;;;;;4.23;2.13;;;4.20;99.90;;;;;;2081702;28;20169;-70
2021/05/30 04:04:12;;;;;;;3.78;1.85;;;4.20;99.90;;;;;;2081742;28;20181;-70
2021/05/30 04:05:15;;;;;;;2.10;1.90;;;4.20;99.90;;;;;;2081781;28;20266;-70
2021/05/30 04:06:17;;;;;;;2.03;1.83;;;4.20;99.90;;;;;;2080829;28;20708;-70
2021/05/30 04:07:18;;;;;;;2.17;1.90;;;4.20;99.90;;;;;;2073003;28;20213;-70
2021/05/30 04:08:18;;;;;;;3.10;2.20;;;4.20;99.90;;;;;;2080944;28;20176;-70
2021/05/30 04:09:19;;;;;;;2.17;1.97;;;4.30;99.90;;;;;;2081046;28;20177;-70
2021/05/30 04:10:20;;;;;;;3.43;2.20;;;4.30;99.90;;;;;;2081558;28;20173;-70
2021/05/30 04:11:21;;;;;;;3.85;1.90;;;4.30;99.90;;;;;;2081312;28;20181;-70
2021/05/30 04:12:22;;;;;;;2.37;2.17;;;4.30;99.90;;;;;;2081596;28;20680;-70
2021/05/30 04:13:22;;;;;;;2.17;1.93;;;4.30;99.90;;;;;;2081739;28;20173;-70
2021/05/30 04:14:23;;;;;;;2.37;1.90;;;4.30;99.90;;;;;;2081034;28;20264;-70
2021/05/30 04:15:24;;;;;;;4.53;2.20;;;4.30;99.90;;;;;;2081053;28;20166;-70
2021/05/30 04:16:25;;;;;;;3.00;2.00;;;4.30;99.90;;;;;;2081261;28;20709;-70
2021/05/30 04:17:25;;;;;;;2.10;1.70;;;4.30;99.90;;;;;;2081693;28;20320;-70
2021/05/30 04:18:26;;;;;;;1.80;1.70;;;4.30;99.90;;;;;;2081038;28;20173;-70
2021/05/30 04:19:27;;;;;;;3.50;1.90;;;4.40;99.90;;;;;;2081044;28;20212;-70
2021/05/30 04:20:27;;;;;;;2.67;2.20;;;4.40;99.90;;;;;;2080971;28;20189;-70
2021/05/30 04:21:28;;;;;;;2.00;1.83;;;4.40;99.90;;;;;;2081453;28;20272;-69
2021/05/30 04:22:29;;;;;;;2.83;1.90;;;4.40;99.90;;;;;;2079924;28;20204;-70
2021/05/30 04:23:31;;;;;;;2.77;2.00;;;4.40;99.90;;;;;;2080867;28;20252;-70
2021/05/30 04:24:31;;;;;;;2.72;1.95;;;4.40;99.90;;;;;;2081696;28;20182;-70
2021/05/30 04:25:32;;;;;;;3.63;1.90;;;4.40;99.90;;;;;;2081619;28;20237;-71
2021/05/30 04:26:33;;;;;;;3.05;1.90;;;4.50;99.90;;;;;;2080770;28;20253;-70
2021/05/30 04:27:37;;;;;;;2.70;2.27;;;4.50;99.90;;;;;;2072765;28;20186;-70
2021/05/30 04:28:38;;;;;;;2.13;1.85;;;4.50;99.90;;;;;;2073272;28;20181;-70
2021/05/30 04:29:39;;;;;;;2.33;2.13;;;4.50;99.90;;;;;;2081049;28;20181;-70
2021/05/30 04:30:39;;;;;;;1.80;1.70;;;4.50;99.90;;;;;;2081017;28;20247;-70
2021/05/30 04:31:40;;;;;;;2.13;1.93;;;4.60;99.90;;;;;;2081540;28;20176;-70
2021/05/30 04:32:42;;;;;;;2.73;1.90;;;4.60;99.90;;;;;;2081455;28;20566;-70
2021/05/30 04:33:42;;;;;;;5.43;2.08;;;4.50;99.90;;;;;;2081118;28;20227;-70
2021/05/30 04:34:43;;;;;;;2.10;1.90;;;4.60;99.90;;;;;;2080917;28;20247;-70
2021/05/30 04:35:44;;;;;;;2.00;1.80;;;4.60;99.90;;;;;;2081567;28;20182;-70
2021/05/30 04:36:44;;;;;;;2.40;2.10;;;4.60;99.90;;;;;;2081525;28;20221;-70
2021/05/30 04:37:45;;;;;;;2.27;1.90;;;4.60;99.90;;;;;;2081600;28;20174;-71
2021/05/30 04:38:46;;;;;;;2.50;1.90;;;4.60;99.90;;;;;;2081160;28;20261;-71
2021/05/30 04:39:47;;;;;;;2.37;1.87;;;4.60;99.90;;;;;;2081534;28;20530;-70
2021/05/30 04:40:49;;;;;;;2.30;2.10;;;4.60;99.90;;;;;;2081420;28;20215;-70
2021/05/30 04:41:50;;;;;;;2.00;1.80;;;4.60;99.90;;;;;;2080709;28;20273;-70
2021/05/30 04:42:52;;;;;;;2.07;1.83;;;4.70;99.90;;;;;;2072629;28;20172;-70
2021/05/30 04:43:53;;;;;;;3.28;2.05;;;4.70;99.90;;;;;;2072672;28;20209;-70
2021/05/30 04:44:53;;;;;;;2.80;2.50;;;4.70;99.90;;;;;;2080857;28;20171;-70
2021/05/30 04:45:54;;;;;;;2.00;1.70;;;4.70;99.90;;;;;;2081342;28;20230;-70
2021/05/30 04:46:55;;;;;;;2.80;1.90;;;4.70;99.90;;;;;;2081441;28;20650;-70
2021/05/30 04:47:56;;;;;;;2.28;2.00;;;4.80;99.90;;;;;;2081373;28;20416;-70
2021/05/30 04:48:57;;;;;;;2.47;2.17;;;4.80;99.90;;;;;;2073632;28;20179;-70
2021/05/30 04:49:58;;;;;;;2.70;2.40;;;4.80;99.90;;;;;;2072441;28;20234;-70
2021/05/30 04:51:12;;;;;;;2.90;2.20;;;4.80;99.90;;;;;;2072572;28;20186;-70
2021/05/30 04:52:13;;;;;;;3.03;2.30;;;4.80;99.90;;;;;;2066344;28;20186;-70
2021/05/30 04:53:13;;;;;;;2.70;2.50;;;4.80;99.90;;;;;;2072474;28;20559;-70
2021/05/30 04:54:14;;;;;;;3.17;2.37;;;4.80;99.90;;;;;;2073149;28;20170;-70
2021/05/30 04:55:15;;;;;;;3.70;3.17;;;4.90;99.90;;;;;;2072473;28;20648;-70
2021/05/30 04:56:20;;;;;;;4.60;3.40;;;4.90;99.90;;;;;;2072387;28;20191;-70
2021/05/30 04:57:21;;;;;;;3.58;3.15;;;4.90;99.90;;;;;;2073062;28;20211;-70
2021/05/30 04:58:22;;;;;;;4.50;2.83;;;5.00;99.90;;;;;;2073265;28;20175;-70
2021/05/30 04:59:22;;;;;;;3.00;2.70;;;5.00;99.90;;;;;;2073045;28;20201;-70
2021/05/30 05:00:23;;;;;;;5.13;2.90;;;5.00;99.90;;;;;;2072884;28;20545;-70
2021/05/30 05:01:24;;;;;;;3.20;2.90;;;5.00;99.90;;;;;;2073005;28;20183;-70
2021/05/30 05:02:24;;;;;;;3.33;2.63;;;5.10;99.90;;;;;;2072964;28;20323;-70
2021/05/30 05:03:26;;;;;;;3.97;2.10;;;5.00;99.90;;;;;;2073014;28;20227;-70
2021/05/30 05:04:27;;;;;;;2.50;2.30;;;5.10;99.90;;;;;;2072351;28;20570;-70
2021/05/30 05:05:28;;;;;;;2.43;2.20;;;5.10;99.90;;;;;;2072392;28;20201;-70
2021/05/30 05:06:28;;;;;;;2.33;2.10;;;5.10;99.90;;;;;;2072893;28;20194;-70
2021/05/30 05:07:29;;;;;;;3.63;2.07;;;5.10;99.90;;;;;;2073030;28;20182;-70
2021/05/30 05:08:30;;;;;;;3.93;2.30;;;5.10;99.90;;;;;;2072911;28;20206;-70
2021/05/30 05:09:30;;;;;;;2.60;2.10;;;5.20;99.90;;;;;;2073080;28;20334;-70
2021/05/30 05:10:31;;;;;;;2.27;1.80;;;5.20;99.90;;;;;;2072789;28;20271;-70
2021/05/30 05:11:32;;;;;;;6.00;2.57;;;5.20;99.90;;;;;;2072786;28;20278;-70
2021/05/30 05:12:34;;;;;;;4.47;1.98;;;5.20;99.90;;;;;;2072911;28;20655;-70
2021/05/30 05:13:36;;;;;;;5.65;1.98;;;5.20;99.90;;;;;;2072492;28;20192;-70
2021/05/30 05:14:37;;;;;;;2.40;2.20;;;5.20;99.90;;;;;;2072342;28;20180;-70
2021/05/30 05:15:37;;;;;;;3.07;2.30;;;5.30;99.90;;;;;;2072917;28;20663;-70
2021/05/30 05:16:38;;;;;;;2.27;2.07;;;5.30;99.90;;;;;;2071997;28;20203;-70
2021/05/30 05:17:39;;;;;;;2.10;1.90;;;5.40;99.90;;;;;;2072421;28;20230;-70
2021/05/30 05:18:40;;;;;;;3.47;2.10;;;5.40;99.90;;;;;;2074211;28;20180;-70
2021/05/30 05:19:41;;;;;;;2.23;1.73;;;5.40;99.90;;;;;;2083272;28;20539;-70
2021/05/30 05:20:42;;;;;;;3.93;1.87;;;5.50;99.90;;;;;;2081023;28;20614;-70
2021/05/30 05:21:43;;;;;;;4.90;2.00;;;5.50;99.90;;;;;;2080234;28;21119;-70
2021/05/30 05:22:44;;;;;;;3.20;2.30;;;5.60;99.90;;;;;;2080334;28;20179;-70
2021/05/30 05:23:44;;;;;;;2.77;1.90;;;5.60;99.90;;;;;;2081157;28;20218;-70
2021/05/30 05:24:45;;;;;;;2.47;1.90;;;5.60;99.90;;;;;;2081019;28;20174;-70
2021/05/30 05:25:51;;;;;;;2.77;2.07;;;5.60;99.90;;;;;;2081023;28;20179;-70
2021/05/30 05:26:52;;;;;;;2.42;2.13;;;5.70;99.90;;;;;;2080885;28;20222;-70